sensor_id;sensor_type;location;lat;lon;timestamp;P1;durP1;ratioP1;P2;durP2;ratioP2
25627;SDS011;40915;50.826;4.356;2024-01-25T00:02:04;50.97;;;9.17;;
25627;SDS011;40915;50.826;4.356;2024-01-25T00:04:29;44.50;;;8.73;;
25627;SDS011;40915;50.826;4.356;2024-01-25T00:06:55;59.33;;;8.63;;
25627;SDS011;40915;50.826;4.356;2024-01-25T00:09:20;47.43;;;8.63;;
25627;SDS011;40915;50.826;4.356;2024-01-25T00:11:46;45.47;;;8.47;;
25627;SDS011;40915;50.826;4.356;2024-01-25T00:14:12;49.13;;;9.07;;
25627;SDS011;40915;50.826;4.356;2024-01-25T00:16:41;54.43;;;8.40;;
25627;SDS011;40915;50.826;4.356;2024-01-25T00:19:07;49.17;;;8.40;;
25627;SDS011;40915;50.826;4.356;2024-01-25T00:21:32;43.97;;;8.37;;
25627;SDS011;40915;50.826;4.356;2024-01-25T00:23:58;49.80;;;8.47;;
25627;SDS011;40915;50.826;4.356;2024-01-25T00:26:23;47.70;;;8.47;;
25627;SDS011;40915;50.826;4.356;2024-01-25T00:28:49;49.77;;;8.60;;
25627;SDS011;40915;50.826;4.356;2024-01-25T00:31:15;59.00;;;9.20;;
25627;SDS011;40915;50.826;4.356;2024-01-25T00:33:40;52.70;;;8.73;;
25627;SDS011;40915;50.826;4.356;2024-01-25T00:36:06;55.47;;;8.73;;
25627;SDS011;40915;50.826;4.356;2024-01-25T00:38:32;46.87;;;8.20;;
25627;SDS011;40915;50.826;4.356;2024-01-25T00:40:58;50.23;;;7.90;;
25627;SDS011;40915;50.826;4.356;2024-01-25T00:43:24;55.00;;;9.20;;
25627;SDS011;40915;50.826;4.356;2024-01-25T00:45:50;51.60;;;8.57;;
25627;SDS011;40915;50.826;4.356;2024-01-25T00:48:16;52.50;;;9.03;;
25627;SDS011;40915;50.826;4.356;2024-01-25T00:50:42;42.23;;;8.20;;
25627;SDS011;40915;50.826;4.356;2024-01-25T00:53:08;54.50;;;8.60;;
25627;SDS011;40915;50.826;4.356;2024-01-25T00:55:34;51.87;;;8.10;;
25627;SDS011;40915;50.826;4.356;2024-01-25T00:58:00;46.13;;;8.07;;
25627;SDS011;40915;50.826;4.356;2024-01-25T01:00:26;54.27;;;8.97;;
25627;SDS011;40915;50.826;4.356;2024-01-25T01:02:52;47.20;;;8.20;;
25627;SDS011;40915;50.826;4.356;2024-01-25T01:05:18;51.87;;;8.40;;
25627;SDS011;40915;50.826;4.356;2024-01-25T01:07:44;52.47;;;9.53;;
25627;SDS011;40915;50.826;4.356;2024-01-25T01:10:10;45.90;;;8.03;;
25627;SDS011;40915;50.826;4.356;2024-01-25T01:12:36;53.67;;;9.23;;
25627;SDS011;40915;50.826;4.356;2024-01-25T01:15:02;51.87;;;7.97;;
25627;SDS011;40915;50.826;4.356;2024-01-25T01:17:28;55.33;;;9.07;;
25627;SDS011;40915;50.826;4.356;2024-01-25T01:19:54;43.37;;;8.43;;
25627;SDS011;40915;50.826;4.356;2024-01-25T01:22:20;50.80;;;7.77;;
25627;SDS011;40915;50.826;4.356;2024-01-25T01:24:45;54.00;;;7.90;;
25627;SDS011;40915;50.826;4.356;2024-01-25T01:27:11;43.00;;;7.53;;
25627;SDS011;40915;50.826;4.356;2024-01-25T01:29:37;45.87;;;8.23;;
25627;SDS011;40915;50.826;4.356;2024-01-25T01:32:02;51.20;;;7.73;;
25627;SDS011;40915;50.826;4.356;2024-01-25T01:34:28;53.20;;;8.03;;
25627;SDS011;40915;50.826;4.356;2024-01-25T01:36:54;52.43;;;8.63;;
25627;SDS011;40915;50.826;4.356;2024-01-25T01:39:19;52.07;;;8.67;;
25627;SDS011;40915;50.826;4.356;2024-01-25T01:41:48;50.13;;;8.77;;
25627;SDS011;40915;50.826;4.356;2024-01-25T01:44:14;47.60;;;8.53;;
25627;SDS011;40915;50.826;4.356;2024-01-25T01:46:40;48.13;;;8.33;;
25627;SDS011;40915;50.826;4.356;2024-01-25T01:49:08;51.07;;;8.53;;
25627;SDS011;40915;50.826;4.356;2024-01-25T01:51:36;51.23;;;7.83;;
25627;SDS011;40915;50.826;4.356;2024-01-25T01:54:03;49.47;;;8.37;;
25627;SDS011;40915;50.826;4.356;2024-01-25T01:56:31;42.80;;;7.20;;
25627;SDS011;40915;50.826;4.356;2024-01-25T01:58:58;47.67;;;7.07;;
25627;SDS011;40915;50.826;4.356;2024-01-25T02:01:29;43.63;;;7.13;;
25627;SDS011;40915;50.826;4.356;2024-01-25T02:03:54;46.03;;;7.30;;
25627;SDS011;40915;50.826;4.356;2024-01-25T02:06:23;46.50;;;7.50;;
25627;SDS011;40915;50.826;4.356;2024-01-25T02:08:49;43.50;;;7.47;;
25627;SDS011;40915;50.826;4.356;2024-01-25T02:11:17;47.20;;;7.90;;
25627;SDS011;40915;50.826;4.356;2024-01-25T02:13:42;45.13;;;7.63;;
25627;SDS011;40915;50.826;4.356;2024-01-25T02:16:08;44.10;;;7.13;;
25627;SDS011;40915;50.826;4.356;2024-01-25T02:18:34;42.63;;;7.50;;
25627;SDS011;40915;50.826;4.356;2024-01-25T02:21:00;50.87;;;7.80;;
25627;SDS011;40915;50.826;4.356;2024-01-25T02:23:25;50.10;;;8.60;;
25627;SDS011;40915;50.826;4.356;2024-01-25T02:25:51;50.20;;;7.77;;
25627;SDS011;40915;50.826;4.356;2024-01-25T02:28:17;41.83;;;7.53;;
25627;SDS011;40915;50.826;4.356;2024-01-25T02:30:42;53.07;;;8.60;;
25627;SDS011;40915;50.826;4.356;2024-01-25T02:33:08;50.20;;;8.40;;
25627;SDS011;40915;50.826;4.356;2024-01-25T02:35:33;44.80;;;7.53;;
25627;SDS011;40915;50.826;4.356;2024-01-25T02:37:59;42.87;;;8.17;;
25627;SDS011;40915;50.826;4.356;2024-01-25T02:40:25;46.13;;;7.97;;
25627;SDS011;40915;50.826;4.356;2024-01-25T02:42:50;62.57;;;9.00;;
25627;SDS011;40915;50.826;4.356;2024-01-25T02:45:16;46.03;;;7.47;;
25627;SDS011;40915;50.826;4.356;2024-01-25T02:47:42;46.10;;;7.33;;
25627;SDS011;40915;50.826;4.356;2024-01-25T02:50:08;53.03;;;8.17;;
25627;SDS011;40915;50.826;4.356;2024-01-25T02:52:34;44.57;;;8.40;;
25627;SDS011;40915;50.826;4.356;2024-01-25T02:54:59;52.50;;;9.00;;
25627;SDS011;40915;50.826;4.356;2024-01-25T02:57:25;53.70;;;8.70;;
25627;SDS011;40915;50.826;4.356;2024-01-25T02:59:51;43.37;;;7.20;;
25627;SDS011;40915;50.826;4.356;2024-01-25T03:02:16;44.63;;;7.80;;
25627;SDS011;40915;50.826;4.356;2024-01-25T03:04:44;50.03;;;8.20;;
25627;SDS011;40915;50.826;4.356;2024-01-25T03:07:10;44.03;;;7.17;;
25627;SDS011;40915;50.826;4.356;2024-01-25T03:09:35;49.83;;;8.43;;
25627;SDS011;40915;50.826;4.356;2024-01-25T03:12:01;41.80;;;7.73;;
25627;SDS011;40915;50.826;4.356;2024-01-25T03:14:27;41.63;;;7.43;;
25627;SDS011;40915;50.826;4.356;2024-01-25T03:16:53;54.37;;;7.97;;
25627;SDS011;40915;50.826;4.356;2024-01-25T03:19:18;48.10;;;8.17;;
25627;SDS011;40915;50.826;4.356;2024-01-25T03:21:44;50.50;;;7.20;;
25627;SDS011;40915;50.826;4.356;2024-01-25T03:24:09;48.63;;;7.83;;
25627;SDS011;40915;50.826;4.356;2024-01-25T03:26:35;57.27;;;8.03;;
25627;SDS011;40915;50.826;4.356;2024-01-25T03:29:00;40.80;;;7.93;;
25627;SDS011;40915;50.826;4.356;2024-01-25T03:31:26;39.77;;;7.47;;
25627;SDS011;40915;50.826;4.356;2024-01-25T03:33:51;41.13;;;8.10;;
25627;SDS011;40915;50.826;4.356;2024-01-25T03:36:17;48.73;;;8.80;;
25627;SDS011;40915;50.826;4.356;2024-01-25T03:38:43;47.10;;;8.13;;
25627;SDS011;40915;50.826;4.356;2024-01-25T03:41:08;52.60;;;7.80;;
25627;SDS011;40915;50.826;4.356;2024-01-25T03:43:34;46.03;;;8.13;;
25627;SDS011;40915;50.826;4.356;2024-01-25T03:46:00;48.00;;;7.70;;
25627;SDS011;40915;50.826;4.356;2024-01-25T03:48:27;58.60;;;9.13;;
25627;SDS011;40915;50.826;4.356;2024-01-25T03:50:53;44.90;;;7.83;;
25627;SDS011;40915;50.826;4.356;2024-01-25T03:53:21;39.27;;;6.87;;
25627;SDS011;40915;50.826;4.356;2024-01-25T03:55:47;43.50;;;7.13;;
25627;SDS011;40915;50.826;4.356;2024-01-25T03:58:14;44.30;;;7.43;;
25627;SDS011;40915;50.826;4.356;2024-01-25T04:00:40;47.10;;;7.57;;
25627;SDS011;40915;50.826;4.356;2024-01-25T04:03:05;45.17;;;7.40;;
25627;SDS011;40915;50.826;4.356;2024-01-25T04:05:31;47.63;;;8.00;;
25627;SDS011;40915;50.826;4.356;2024-01-25T04:07:56;50.87;;;8.33;;
25627;SDS011;40915;50.826;4.356;2024-01-25T04:10:22;46.03;;;8.23;;
25627;SDS011;40915;50.826;4.356;2024-01-25T04:12:48;48.93;;;7.83;;
25627;SDS011;40915;50.826;4.356;2024-01-25T04:15:13;39.97;;;7.47;;
25627;SDS011;40915;50.826;4.356;2024-01-25T04:17:39;43.37;;;7.77;;
25627;SDS011;40915;50.826;4.356;2024-01-25T04:20:05;54.53;;;8.10;;
25627;SDS011;40915;50.826;4.356;2024-01-25T04:22:31;43.17;;;7.63;;
25627;SDS011;40915;50.826;4.356;2024-01-25T04:24:56;49.13;;;7.53;;
25627;SDS011;40915;50.826;4.356;2024-01-25T04:27:22;35.77;;;6.63;;
25627;SDS011;40915;50.826;4.356;2024-01-25T04:29:48;49.90;;;8.33;;
25627;SDS011;40915;50.826;4.356;2024-01-25T04:32:13;48.20;;;8.47;;
25627;SDS011;40915;50.826;4.356;2024-01-25T04:34:39;40.20;;;7.40;;
25627;SDS011;40915;50.826;4.356;2024-01-25T04:37:05;50.23;;;8.83;;
25627;SDS011;40915;50.826;4.356;2024-01-25T04:39:30;45.70;;;6.80;;
25627;SDS011;40915;50.826;4.356;2024-01-25T04:41:56;48.60;;;7.63;;
25627;SDS011;40915;50.826;4.356;2024-01-25T04:44:21;51.97;;;7.53;;
25627;SDS011;40915;50.826;4.356;2024-01-25T04:46:47;41.07;;;7.93;;
25627;SDS011;40915;50.826;4.356;2024-01-25T04:49:12;41.80;;;7.60;;
25627;SDS011;40915;50.826;4.356;2024-01-25T04:51:38;45.50;;;7.73;;
25627;SDS011;40915;50.826;4.356;2024-01-25T04:54:04;49.30;;;8.30;;
25627;SDS011;40915;50.826;4.356;2024-01-25T04:56:31;54.30;;;7.40;;
25627;SDS011;40915;50.826;4.356;2024-01-25T04:58:57;39.57;;;6.90;;
25627;SDS011;40915;50.826;4.356;2024-01-25T05:01:22;41.77;;;6.90;;
25627;SDS011;40915;50.826;4.356;2024-01-25T05:03:48;43.20;;;7.73;;
25627;SDS011;40915;50.826;4.356;2024-01-25T05:06:14;40.87;;;6.90;;
25627;SDS011;40915;50.826;4.356;2024-01-25T05:08:41;49.33;;;8.00;;
25627;SDS011;40915;50.826;4.356;2024-01-25T05:11:07;42.93;;;7.27;;
25627;SDS011;40915;50.826;4.356;2024-01-25T05:13:34;51.33;;;7.63;;
25627;SDS011;40915;50.826;4.356;2024-01-25T05:16:00;41.43;;;7.37;;
25627;SDS011;40915;50.826;4.356;2024-01-25T05:18:25;50.90;;;7.90;;
25627;SDS011;40915;50.826;4.356;2024-01-25T05:20:51;47.37;;;7.70;;
25627;SDS011;40915;50.826;4.356;2024-01-25T05:23:17;42.60;;;7.57;;
25627;SDS011;40915;50.826;4.356;2024-01-25T05:25:42;54.50;;;7.60;;
25627;SDS011;40915;50.826;4.356;2024-01-25T05:28:08;48.03;;;7.10;;
25627;SDS011;40915;50.826;4.356;2024-01-25T05:30:33;61.37;;;8.50;;
25627;SDS011;40915;50.826;4.356;2024-01-25T05:32:59;49.20;;;7.83;;
25627;SDS011;40915;50.826;4.356;2024-01-25T05:35:25;46.50;;;7.10;;
25627;SDS011;40915;50.826;4.356;2024-01-25T05:37:51;41.50;;;7.23;;
25627;SDS011;40915;50.826;4.356;2024-01-25T05:40:17;53.57;;;8.00;;
25627;SDS011;40915;50.826;4.356;2024-01-25T05:42:43;46.93;;;7.93;;
25627;SDS011;40915;50.826;4.356;2024-01-25T05:45:09;46.37;;;7.40;;
25627;SDS011;40915;50.826;4.356;2024-01-25T05:47:35;50.33;;;7.97;;
25627;SDS011;40915;50.826;4.356;2024-01-25T05:50:00;45.00;;;8.37;;
25627;SDS011;40915;50.826;4.356;2024-01-25T05:52:27;50.47;;;8.33;;
25627;SDS011;40915;50.826;4.356;2024-01-25T05:54:53;62.80;;;10.20;;
25627;SDS011;40915;50.826;4.356;2024-01-25T05:57:18;45.80;;;8.33;;
25627;SDS011;40915;50.826;4.356;2024-01-25T05:59:45;54.67;;;9.13;;
25627;SDS011;40915;50.826;4.356;2024-01-25T06:02:10;53.50;;;9.13;;
25627;SDS011;40915;50.826;4.356;2024-01-25T06:04:36;51.10;;;8.20;;
25627;SDS011;40915;50.826;4.356;2024-01-25T06:07:02;50.57;;;8.23;;
25627;SDS011;40915;50.826;4.356;2024-01-25T06:09:28;60.23;;;9.33;;
25627;SDS011;40915;50.826;4.356;2024-01-25T06:11:54;57.17;;;9.27;;
25627;SDS011;40915;50.826;4.356;2024-01-25T06:14:19;48.20;;;8.77;;
25627;SDS011;40915;50.826;4.356;2024-01-25T06:16:45;50.90;;;8.77;;
25627;SDS011;40915;50.826;4.356;2024-01-25T06:19:11;50.60;;;10.10;;
25627;SDS011;40915;50.826;4.356;2024-01-25T06:21:36;53.60;;;8.40;;
25627;SDS011;40915;50.826;4.356;2024-01-25T06:24:03;56.47;;;9.97;;
25627;SDS011;40915;50.826;4.356;2024-01-25T06:26:31;54.13;;;10.07;;
25627;SDS011;40915;50.826;4.356;2024-01-25T06:28:57;55.20;;;9.20;;
25627;SDS011;40915;50.826;4.356;2024-01-25T06:31:23;45.70;;;8.87;;
25627;SDS011;40915;50.826;4.356;2024-01-25T06:33:49;56.43;;;10.83;;
25627;SDS011;40915;50.826;4.356;2024-01-25T06:36:17;63.23;;;10.77;;
25627;SDS011;40915;50.826;4.356;2024-01-25T06:38:42;55.63;;;10.80;;
25627;SDS011;40915;50.826;4.356;2024-01-25T06:41:08;63.70;;;10.93;;
25627;SDS011;40915;50.826;4.356;2024-01-25T06:43:34;59.20;;;12.43;;
25627;SDS011;40915;50.826;4.356;2024-01-25T06:46:00;58.60;;;11.90;;
25627;SDS011;40915;50.826;4.356;2024-01-25T06:48:25;68.17;;;14.13;;
25627;SDS011;40915;50.826;4.356;2024-01-25T06:50:51;59.17;;;13.80;;
25627;SDS011;40915;50.826;4.356;2024-01-25T06:53:17;63.17;;;12.83;;
25627;SDS011;40915;50.826;4.356;2024-01-25T06:55:42;54.13;;;12.37;;
25627;SDS011;40915;50.826;4.356;2024-01-25T06:58:08;56.33;;;13.23;;
25627;SDS011;40915;50.826;4.356;2024-01-25T07:00:34;50.13;;;12.33;;
25627;SDS011;40915;50.826;4.356;2024-01-25T07:02:59;57.27;;;13.43;;
25627;SDS011;40915;50.826;4.356;2024-01-25T07:05:25;73.40;;;13.83;;
25627;SDS011;40915;50.826;4.356;2024-01-25T07:07:51;74.87;;;14.83;;
25627;SDS011;40915;50.826;4.356;2024-01-25T07:10:17;67.63;;;15.17;;
25627;SDS011;40915;50.826;4.356;2024-01-25T07:12:43;65.50;;;13.67;;
25627;SDS011;40915;50.826;4.356;2024-01-25T07:15:09;59.90;;;14.50;;
25627;SDS011;40915;50.826;4.356;2024-01-25T07:17:35;55.93;;;15.37;;
25627;SDS011;40915;50.826;4.356;2024-01-25T07:20:00;64.63;;;16.83;;
25627;SDS011;40915;50.826;4.356;2024-01-25T07:22:26;62.13;;;14.40;;
25627;SDS011;40915;50.826;4.356;2024-01-25T07:24:51;52.97;;;12.93;;
25627;SDS011;40915;50.826;4.356;2024-01-25T07:27:17;48.60;;;13.93;;
25627;SDS011;40915;50.826;4.356;2024-01-25T07:29:43;45.60;;;14.97;;
25627;SDS011;40915;50.826;4.356;2024-01-25T07:32:10;49.07;;;16.40;;
25627;SDS011;40915;50.826;4.356;2024-01-25T07:34:36;42.70;;;13.97;;
25627;SDS011;40915;50.826;4.356;2024-01-25T07:37:02;43.83;;;13.50;;
25627;SDS011;40915;50.826;4.356;2024-01-25T07:39:28;38.00;;;13.13;;
25627;SDS011;40915;50.826;4.356;2024-01-25T07:41:54;46.03;;;13.37;;
25627;SDS011;40915;50.826;4.356;2024-01-25T07:44:19;41.83;;;13.20;;
25627;SDS011;40915;50.826;4.356;2024-01-25T07:46:45;39.43;;;12.53;;
25627;SDS011;40915;50.826;4.356;2024-01-25T07:49:11;34.60;;;13.10;;
25627;SDS011;40915;50.826;4.356;2024-01-25T07:51:36;40.60;;;13.27;;
25627;SDS011;40915;50.826;4.356;2024-01-25T07:54:02;36.30;;;14.13;;
25627;SDS011;40915;50.826;4.356;2024-01-25T07:56:27;40.73;;;13.83;;
25627;SDS011;40915;50.826;4.356;2024-01-25T07:58:54;35.47;;;13.13;;
25627;SDS011;40915;50.826;4.356;2024-01-25T08:01:20;34.23;;;12.73;;
25627;SDS011;40915;50.826;4.356;2024-01-25T08:03:46;78.20;;;14.03;;
25627;SDS011;40915;50.826;4.356;2024-01-25T08:06:12;69.57;;;14.27;;
25627;SDS011;40915;50.826;4.356;2024-01-25T08:08:38;57.73;;;13.30;;
25627;SDS011;40915;50.826;4.356;2024-01-25T08:11:04;42.67;;;13.10;;
25627;SDS011;40915;50.826;4.356;2024-01-25T08:13:30;42.57;;;13.43;;
25627;SDS011;40915;50.826;4.356;2024-01-25T08:15:56;64.93;;;15.17;;
25627;SDS011;40915;50.826;4.356;2024-01-25T08:18:22;44.27;;;13.47;;
25627;SDS011;40915;50.826;4.356;2024-01-25T08:20:48;49.40;;;12.47;;
25627;SDS011;40915;50.826;4.356;2024-01-25T08:23:15;47.27;;;12.80;;
25627;SDS011;40915;50.826;4.356;2024-01-25T08:25:41;64.97;;;13.57;;
25627;SDS011;40915;50.826;4.356;2024-01-25T08:28:07;47.50;;;12.97;;
25627;SDS011;40915;50.826;4.356;2024-01-25T08:30:33;57.57;;;12.60;;
25627;SDS011;40915;50.826;4.356;2024-01-25T08:32:58;32.03;;;12.23;;
25627;SDS011;40915;50.826;4.356;2024-01-25T08:35:24;42.40;;;13.00;;
25627;SDS011;40915;50.826;4.356;2024-01-25T08:37:50;38.17;;;12.50;;
25627;SDS011;40915;50.826;4.356;2024-01-25T08:40:16;41.00;;;11.80;;
25627;SDS011;40915;50.826;4.356;2024-01-25T08:42:41;54.20;;;13.37;;
25627;SDS011;40915;50.826;4.356;2024-01-25T08:45:07;38.07;;;12.93;;
25627;SDS011;40915;50.826;4.356;2024-01-25T08:47:37;33.60;;;12.80;;
25627;SDS011;40915;50.826;4.356;2024-01-25T08:50:02;37.57;;;13.10;;
25627;SDS011;40915;50.826;4.356;2024-01-25T08:52:30;36.87;;;12.57;;
25627;SDS011;40915;50.826;4.356;2024-01-25T08:54:56;33.90;;;12.63;;
25627;SDS011;40915;50.826;4.356;2024-01-25T08:57:21;32.53;;;12.70;;
25627;SDS011;40915;50.826;4.356;2024-01-25T08:59:47;32.13;;;14.07;;
25627;SDS011;40915;50.826;4.356;2024-01-25T09:02:13;35.33;;;12.23;;
25627;SDS011;40915;50.826;4.356;2024-01-25T09:04:38;28.43;;;12.33;;
25627;SDS011;40915;50.826;4.356;2024-01-25T09:07:08;29.77;;;11.63;;
25627;SDS011;40915;50.826;4.356;2024-01-25T09:09:33;37.57;;;12.90;;
25627;SDS011;40915;50.826;4.356;2024-01-25T09:11:59;30.90;;;11.93;;
25627;SDS011;40915;50.826;4.356;2024-01-25T09:14:25;30.97;;;13.10;;
25627;SDS011;40915;50.826;4.356;2024-01-25T09:16:50;37.37;;;14.30;;
25627;SDS011;40915;50.826;4.356;2024-01-25T09:19:16;39.63;;;14.10;;
25627;SDS011;40915;50.826;4.356;2024-01-25T09:21:42;46.67;;;15.23;;
25627;SDS011;40915;50.826;4.356;2024-01-25T09:24:08;55.87;;;17.10;;
25627;SDS011;40915;50.826;4.356;2024-01-25T09:26:33;48.83;;;17.13;;
25627;SDS011;40915;50.826;4.356;2024-01-25T09:28:59;49.40;;;17.37;;
25627;SDS011;40915;50.826;4.356;2024-01-25T09:31:24;54.73;;;18.73;;
25627;SDS011;40915;50.826;4.356;2024-01-25T09:33:50;51.20;;;18.67;;
25627;SDS011;40915;50.826;4.356;2024-01-25T09:36:16;53.40;;;18.23;;
25627;SDS011;40915;50.826;4.356;2024-01-25T09:38:42;54.07;;;18.63;;
25627;SDS011;40915;50.826;4.356;2024-01-25T09:41:08;55.53;;;18.40;;
25627;SDS011;40915;50.826;4.356;2024-01-25T09:43:35;55.53;;;18.50;;
25627;SDS011;40915;50.826;4.356;2024-01-25T09:46:02;72.47;;;25.08;;
25627;SDS011;40915;50.826;4.356;2024-01-25T09:48:29;56.43;;;20.20;;
25627;SDS011;40915;50.826;4.356;2024-01-25T09:50:55;69.73;;;19.50;;
25627;SDS011;40915;50.826;4.356;2024-01-25T09:53:21;51.83;;;18.70;;
25627;SDS011;40915;50.826;4.356;2024-01-25T09:55:58;50.50;;;17.33;;
25627;SDS011;40915;50.826;4.356;2024-01-25T09:58:33;51.83;;;17.60;;
25627;SDS011;40915;50.826;4.356;2024-01-25T10:01:08;57.90;;;19.57;;
25627;SDS011;40915;50.826;4.356;2024-01-25T10:03:35;55.70;;;19.13;;
25627;SDS011;40915;50.826;4.356;2024-01-25T10:06:01;59.10;;;18.60;;
25627;SDS011;40915;50.826;4.356;2024-01-25T10:08:28;53.87;;;17.90;;
25627;SDS011;40915;50.826;4.356;2024-01-25T10:10:54;50.33;;;16.83;;
25627;SDS011;40915;50.826;4.356;2024-01-25T10:13:20;52.33;;;17.70;;
25627;SDS011;40915;50.826;4.356;2024-01-25T10:15:46;54.03;;;17.83;;
25627;SDS011;40915;50.826;4.356;2024-01-25T10:18:13;47.27;;;16.70;;
25627;SDS011;40915;50.826;4.356;2024-01-25T10:20:39;48.73;;;14.97;;
25627;SDS011;40915;50.826;4.356;2024-01-25T10:23:07;39.80;;;14.57;;
25627;SDS011;40915;50.826;4.356;2024-01-25T10:25:34;47.07;;;15.60;;
25627;SDS011;40915;50.826;4.356;2024-01-25T10:28:03;40.00;;;14.10;;
25627;SDS011;40915;50.826;4.356;2024-01-25T10:30:31;43.77;;;14.77;;
25627;SDS011;40915;50.826;4.356;2024-01-25T10:32:58;39.30;;;14.10;;
25627;SDS011;40915;50.826;4.356;2024-01-25T10:35:25;43.00;;;14.63;;
25627;SDS011;40915;50.826;4.356;2024-01-25T10:37:51;36.50;;;13.57;;
25627;SDS011;40915;50.826;4.356;2024-01-25T10:40:18;47.13;;;15.33;;
25627;SDS011;40915;50.826;4.356;2024-01-25T10:42:44;39.43;;;13.40;;
25627;SDS011;40915;50.826;4.356;2024-01-25T10:45:10;38.43;;;13.53;;
25627;SDS011;40915;50.826;4.356;2024-01-25T10:47:36;35.67;;;11.93;;
25627;SDS011;40915;50.826;4.356;2024-01-25T10:50:02;32.83;;;11.80;;
25627;SDS011;40915;50.826;4.356;2024-01-25T10:52:30;37.17;;;12.20;;
25627;SDS011;40915;50.826;4.356;2024-01-25T10:54:57;40.40;;;12.67;;
25627;SDS011;40915;50.826;4.356;2024-01-25T10:57:23;33.80;;;11.93;;
25627;SDS011;40915;50.826;4.356;2024-01-25T10:59:49;29.10;;;10.93;;
25627;SDS011;40915;50.826;4.356;2024-01-25T11:02:18;41.83;;;12.00;;
25627;SDS011;40915;50.826;4.356;2024-01-25T11:04:55;36.28;;;10.90;;
25627;SDS011;40915;50.826;4.356;2024-01-25T11:07:21;33.60;;;11.10;;
25627;SDS011;40915;50.826;4.356;2024-01-25T11:09:46;33.63;;;10.80;;
25627;SDS011;40915;50.826;4.356;2024-01-25T11:12:17;35.63;;;10.30;;
25627;SDS011;40915;50.826;4.356;2024-01-25T11:14:44;31.77;;;10.17;;
25627;SDS011;40915;50.826;4.356;2024-01-25T11:17:19;30.08;;;10.00;;
25627;SDS011;40915;50.826;4.356;2024-01-25T11:19:45;32.00;;;9.50;;
25627;SDS011;40915;50.826;4.356;2024-01-25T11:22:13;33.20;;;9.50;;
25627;SDS011;40915;50.826;4.356;2024-01-25T11:24:39;30.00;;;9.80;;
25627;SDS011;40915;50.826;4.356;2024-01-25T11:27:05;30.80;;;9.17;;
25627;SDS011;40915;50.826;4.356;2024-01-25T11:29:31;29.60;;;9.98;;
25627;SDS011;40915;50.826;4.356;2024-01-25T11:31:57;35.10;;;10.40;;
25627;SDS011;40915;50.826;4.356;2024-01-25T11:34:23;31.63;;;10.85;;
25627;SDS011;40915;50.826;4.356;2024-01-25T11:36:49;28.13;;;9.63;;
25627;SDS011;40915;50.826;4.356;2024-01-25T11:39:16;32.08;;;9.98;;
25627;SDS011;40915;50.826;4.356;2024-01-25T11:41:43;39.17;;;10.60;;
25627;SDS011;40915;50.826;4.356;2024-01-25T11:44:09;28.55;;;10.25;;
25627;SDS011;40915;50.826;4.356;2024-01-25T11:46:36;32.47;;;10.10;;
25627;SDS011;40915;50.826;4.356;2024-01-25T11:49:02;31.70;;;10.87;;
25627;SDS011;40915;50.826;4.356;2024-01-25T11:51:28;31.10;;;10.63;;
25627;SDS011;40915;50.826;4.356;2024-01-25T11:53:53;26.60;;;9.30;;
25627;SDS011;40915;50.826;4.356;2024-01-25T11:56:20;29.58;;;10.05;;
25627;SDS011;40915;50.826;4.356;2024-01-25T11:58:49;29.58;;;10.73;;
25627;SDS011;40915;50.826;4.356;2024-01-25T12:01:15;23.38;;;9.27;;
25627;SDS011;40915;50.826;4.356;2024-01-25T12:03:42;31.58;;;11.18;;
25627;SDS011;40915;50.826;4.356;2024-01-25T12:06:08;27.50;;;10.37;;
25627;SDS011;40915;50.826;4.356;2024-01-25T12:08:34;30.48;;;9.13;;
25627;SDS011;40915;50.826;4.356;2024-01-25T12:13:38;32.13;;;11.05;;
25627;SDS011;40915;50.826;4.356;2024-01-25T12:16:05;28.17;;;11.50;;
25627;SDS011;40915;50.826;4.356;2024-01-25T12:18:32;33.17;;;11.97;;
25627;SDS011;40915;50.826;4.356;2024-01-25T12:20:59;27.67;;;11.73;;
25627;SDS011;40915;50.826;4.356;2024-01-25T12:23:32;31.55;;;12.13;;
25627;SDS011;40915;50.826;4.356;2024-01-25T12:26:03;28.90;;;10.87;;
25627;SDS011;40915;50.826;4.356;2024-01-25T12:28:30;30.03;;;11.63;;
25627;SDS011;40915;50.826;4.356;2024-01-25T12:30:57;25.00;;;12.00;;
25627;SDS011;40915;50.826;4.356;2024-01-25T12:33:29;24.03;;;11.70;;
25627;SDS011;40915;50.826;4.356;2024-01-25T12:35:56;48.00;;;20.17;;
25627;SDS011;40915;50.826;4.356;2024-01-25T12:38:22;51.20;;;21.93;;
25627;SDS011;40915;50.826;4.356;2024-01-25T12:40:48;29.33;;;13.77;;
25627;SDS011;40915;50.826;4.356;2024-01-25T12:43:15;28.63;;;11.97;;
25627;SDS011;40915;50.826;4.356;2024-01-25T12:45:41;34.13;;;14.50;;
25627;SDS011;40915;50.826;4.356;2024-01-25T12:48:07;61.78;;;27.42;;
25627;SDS011;40915;50.826;4.356;2024-01-25T12:50:34;30.03;;;11.40;;
25627;SDS011;40915;50.826;4.356;2024-01-25T12:53:00;21.33;;;9.57;;
25627;SDS011;40915;50.826;4.356;2024-01-25T12:55:27;28.17;;;14.23;;
25627;SDS011;40915;50.826;4.356;2024-01-25T12:57:54;22.63;;;10.20;;
25627;SDS011;40915;50.826;4.356;2024-01-25T13:00:20;22.13;;;10.10;;
25627;SDS011;40915;50.826;4.356;2024-01-25T13:02:46;45.60;;;20.40;;
25627;SDS011;40915;50.826;4.356;2024-01-25T13:05:13;31.33;;;14.80;;
25627;SDS011;40915;50.826;4.356;2024-01-25T13:07:39;48.00;;;22.80;;
25627;SDS011;40915;50.826;4.356;2024-01-25T13:10:04;35.80;;;16.30;;
25627;SDS011;40915;50.826;4.356;2024-01-25T13:12:31;27.45;;;12.38;;
25627;SDS011;40915;50.826;4.356;2024-01-25T13:14:56;20.90;;;10.83;;
25627;SDS011;40915;50.826;4.356;2024-01-25T13:17:22;26.33;;;13.88;;
25627;SDS011;40915;50.826;4.356;2024-01-25T13:19:49;20.65;;;10.50;;
25627;SDS011;40915;50.826;4.356;2024-01-25T13:22:14;26.47;;;15.10;;
25627;SDS011;40915;50.826;4.356;2024-01-25T13:24:42;24.57;;;13.87;;
25627;SDS011;40915;50.826;4.356;2024-01-25T13:27:08;20.10;;;10.30;;
25627;SDS011;40915;50.826;4.356;2024-01-25T13:29:34;16.48;;;9.07;;
25627;SDS011;40915;50.826;4.356;2024-01-25T13:31:59;19.33;;;12.70;;
25627;SDS011;40915;50.826;4.356;2024-01-25T13:34:25;16.45;;;10.23;;
25627;SDS011;40915;50.826;4.356;2024-01-25T13:36:51;12.82;;;7.90;;
25627;SDS011;40915;50.826;4.356;2024-01-25T13:39:16;14.35;;;8.38;;
25627;SDS011;40915;50.826;4.356;2024-01-25T13:41:42;14.77;;;7.20;;
25627;SDS011;40915;50.826;4.356;2024-01-25T13:44:08;11.38;;;6.57;;
25627;SDS011;40915;50.826;4.356;2024-01-25T13:46:33;16.98;;;9.57;;
25627;SDS011;40915;50.826;4.356;2024-01-25T13:48:59;14.00;;;8.65;;
25627;SDS011;40915;50.826;4.356;2024-01-25T13:51:24;15.15;;;9.52;;
25627;SDS011;40915;50.826;4.356;2024-01-25T13:53:50;13.60;;;8.73;;
25627;SDS011;40915;50.826;4.356;2024-01-25T13:56:15;10.25;;;8.52;;
25627;SDS011;40915;50.826;4.356;2024-01-25T13:58:41;20.15;;;11.88;;
25627;SDS011;40915;50.826;4.356;2024-01-25T14:01:07;14.25;;;9.77;;
25627;SDS011;40915;50.826;4.356;2024-01-25T14:03:33;14.07;;;9.23;;
25627;SDS011;40915;50.826;4.356;2024-01-25T14:05:59;13.32;;;9.73;;
25627;SDS011;40915;50.826;4.356;2024-01-25T14:08:29;18.20;;;10.30;;
25627;SDS011;40915;50.826;4.356;2024-01-25T14:10:55;14.80;;;9.90;;
25627;SDS011;40915;50.826;4.356;2024-01-25T14:13:21;15.35;;;10.68;;
25627;SDS011;40915;50.826;4.356;2024-01-25T14:15:46;14.93;;;10.93;;
25627;SDS011;40915;50.826;4.356;2024-01-25T14:18:12;16.48;;;12.10;;
25627;SDS011;40915;50.826;4.356;2024-01-25T14:20:38;14.73;;;10.73;;
25627;SDS011;40915;50.826;4.356;2024-01-25T14:23:03;15.82;;;10.60;;
25627;SDS011;40915;50.826;4.356;2024-01-25T14:25:29;14.77;;;10.98;;